sensor_id;sensor_type;location;lat;lon;timestamp;P1;durP1;ratioP1;P2;durP2;ratioP2
23266;SDS011;11802;53.160;8.214;2023-07-09T00:01:13;11.23;;;6.57;;
23266;SDS011;11802;53.160;8.214;2023-07-09T00:03:42;10.70;;;6.82;;
23266;SDS011;11802;53.160;8.214;2023-07-09T00:06:08;10.98;;;7.22;;
23266;SDS011;11802;53.160;8.214;2023-07-09T00:08:34;11.98;;;7.13;;
23266;SDS011;11802;53.160;8.214;2023-07-09T00:11:01;10.27;;;6.68;;
23266;SDS011;11802;53.160;8.214;2023-07-09T00:13:27;8.63;;;6.63;;
23266;SDS011;11802;53.160;8.214;2023-07-09T00:15:57;9.18;;;6.30;;
23266;SDS011;11802;53.160;8.214;2023-07-09T00:18:25;11.43;;;6.85;;
23266;SDS011;11802;53.160;8.214;2023-07-09T00:20:50;11.35;;;6.97;;
23266;SDS011;11802;53.160;8.214;2023-07-09T00:23:16;11.13;;;7.20;;
23266;SDS011;11802;53.160;8.214;2023-07-09T00:25:45;10.63;;;7.32;;
23266;SDS011;11802;53.160;8.214;2023-07-09T00:28:17;10.13;;;7.15;;
23266;SDS011;11802;53.160;8.214;2023-07-09T00:30:44;11.20;;;7.18;;
23266;SDS011;11802;53.160;8.214;2023-07-09T00:33:11;12.27;;;7.35;;
23266;SDS011;11802;53.160;8.214;2023-07-09T00:35:41;9.18;;;6.57;;
23266;SDS011;11802;53.160;8.214;2023-07-09T00:38:21;15.75;;;7.60;;
23266;SDS011;11802;53.160;8.214;2023-07-09T00:41:00;10.48;;;7.20;;
23266;SDS011;11802;53.160;8.214;2023-07-09T00:43:31;12.18;;;7.95;;
23266;SDS011;11802;53.160;8.214;2023-07-09T00:49:11;10.60;;;7.28;;
23266;SDS011;11802;53.160;8.214;2023-07-09T00:51:42;11.45;;;8.02;;
23266;SDS011;11802;53.160;8.214;2023-07-09T00:54:33;11.38;;;7.72;;
23266;SDS011;11802;53.160;8.214;2023-07-09T00:57:03;10.93;;;7.78;;
23266;SDS011;11802;53.160;8.214;2023-07-09T00:59:33;11.75;;;8.02;;
23266;SDS011;11802;53.160;8.214;2023-07-09T01:01:59;10.45;;;8.55;;
23266;SDS011;11802;53.160;8.214;2023-07-09T01:04:25;11.75;;;7.82;;
23266;SDS011;11802;53.160;8.214;2023-07-09T01:06:53;11.30;;;7.30;;
23266;SDS011;11802;53.160;8.214;2023-07-09T01:09:20;11.88;;;8.10;;
23266;SDS011;11802;53.160;8.214;2023-07-09T01:11:47;10.32;;;7.72;;
23266;SDS011;11802;53.160;8.214;2023-07-09T01:14:15;13.73;;;8.10;;
23266;SDS011;11802;53.160;8.214;2023-07-09T01:16:48;13.00;;;7.55;;
23266;SDS011;11802;53.160;8.214;2023-07-09T01:19:22;11.45;;;7.93;;
23266;SDS011;11802;53.160;8.214;2023-07-09T01:21:50;12.30;;;7.88;;
23266;SDS011;11802;53.160;8.214;2023-07-09T01:27:17;10.10;;;7.85;;
23266;SDS011;11802;53.160;8.214;2023-07-09T01:29:44;9.48;;;7.68;;
23266;SDS011;11802;53.160;8.214;2023-07-09T01:32:18;13.68;;;7.88;;
23266;SDS011;11802;53.160;8.214;2023-07-09T01:34:46;11.57;;;7.82;;
23266;SDS011;11802;53.160;8.214;2023-07-09T01:37:14;11.57;;;7.70;;
23266;SDS011;11802;53.160;8.214;2023-07-09T01:39:42;9.10;;;7.30;;
23266;SDS011;11802;53.160;8.214;2023-07-09T01:42:08;14.25;;;7.85;;
23266;SDS011;11802;53.160;8.214;2023-07-09T01:44:34;10.63;;;7.70;;
23266;SDS011;11802;53.160;8.214;2023-07-09T01:47:01;12.95;;;8.25;;
23266;SDS011;11802;53.160;8.214;2023-07-09T01:49:29;10.73;;;7.93;;
23266;SDS011;11802;53.160;8.214;2023-07-09T01:51:57;12.77;;;7.95;;
23266;SDS011;11802;53.160;8.214;2023-07-09T01:54:27;11.07;;;8.10;;
23266;SDS011;11802;53.160;8.214;2023-07-09T01:57:12;11.68;;;7.68;;
23266;SDS011;11802;53.160;8.214;2023-07-09T01:59:58;9.82;;;7.40;;
23266;SDS011;11802;53.160;8.214;2023-07-09T02:02:26;11.57;;;8.10;;
23266;SDS011;11802;53.160;8.214;2023-07-09T02:04:52;10.30;;;7.63;;
23266;SDS011;11802;53.160;8.214;2023-07-09T02:07:21;9.20;;;7.32;;
23266;SDS011;11802;53.160;8.214;2023-07-09T02:09:47;11.65;;;8.18;;
23266;SDS011;11802;53.160;8.214;2023-07-09T02:12:14;11.90;;;7.63;;
23266;SDS011;11802;53.160;8.214;2023-07-09T02:14:41;12.70;;;7.63;;
23266;SDS011;11802;53.160;8.214;2023-07-09T02:17:08;9.75;;;8.15;;
23266;SDS011;11802;53.160;8.214;2023-07-09T02:19:35;13.20;;;8.57;;
23266;SDS011;11802;53.160;8.214;2023-07-09T02:22:01;16.77;;;8.25;;
23266;SDS011;11802;53.160;8.214;2023-07-09T02:24:26;11.13;;;8.15;;
23266;SDS011;11802;53.160;8.214;2023-07-09T02:26:56;10.18;;;8.13;;
23266;SDS011;11802;53.160;8.214;2023-07-09T02:29:23;9.55;;;7.60;;
23266;SDS011;11802;53.160;8.214;2023-07-09T02:31:50;13.90;;;8.40;;
23266;SDS011;11802;53.160;8.214;2023-07-09T02:34:17;10.73;;;7.97;;
23266;SDS011;11802;53.160;8.214;2023-07-09T02:36:43;10.73;;;7.88;;
23266;SDS011;11802;53.160;8.214;2023-07-09T02:39:10;10.95;;;7.75;;
23266;SDS011;11802;53.160;8.214;2023-07-09T02:41:37;9.20;;;7.80;;
23266;SDS011;11802;53.160;8.214;2023-07-09T02:44:03;12.25;;;8.18;;
23266;SDS011;11802;53.160;8.214;2023-07-09T02:46:29;10.75;;;7.65;;
23266;SDS011;11802;53.160;8.214;2023-07-09T02:48:55;10.52;;;7.85;;
23266;SDS011;11802;53.160;8.214;2023-07-09T02:51:20;9.45;;;7.75;;
23266;SDS011;11802;53.160;8.214;2023-07-09T02:53:46;10.13;;;7.82;;
23266;SDS011;11802;53.160;8.214;2023-07-09T02:56:12;10.43;;;7.50;;
23266;SDS011;11802;53.160;8.214;2023-07-09T02:58:38;11.48;;;8.82;;
23266;SDS011;11802;53.160;8.214;2023-07-09T03:01:03;13.43;;;8.82;;
23266;SDS011;11802;53.160;8.214;2023-07-09T03:03:30;9.43;;;8.07;;
23266;SDS011;11802;53.160;8.214;2023-07-09T03:05:56;9.82;;;7.57;;
23266;SDS011;11802;53.160;8.214;2023-07-09T03:08:21;12.75;;;8.02;;
23266;SDS011;11802;53.160;8.214;2023-07-09T03:10:47;11.82;;;8.13;;
23266;SDS011;11802;53.160;8.214;2023-07-09T03:13:12;12.55;;;8.20;;
23266;SDS011;11802;53.160;8.214;2023-07-09T03:15:38;9.93;;;7.90;;
23266;SDS011;11802;53.160;8.214;2023-07-09T03:18:03;10.18;;;8.27;;
23266;SDS011;11802;53.160;8.214;2023-07-09T03:20:29;15.13;;;8.65;;
23266;SDS011;11802;53.160;8.214;2023-07-09T03:22:54;12.13;;;7.80;;
23266;SDS011;11802;53.160;8.214;2023-07-09T03:25:20;10.40;;;8.60;;
23266;SDS011;11802;53.160;8.214;2023-07-09T03:27:49;10.27;;;7.95;;
23266;SDS011;11802;53.160;8.214;2023-07-09T03:30:14;10.38;;;8.02;;
23266;SDS011;11802;53.160;8.214;2023-07-09T03:32:40;11.32;;;8.10;;
23266;SDS011;11802;53.160;8.214;2023-07-09T03:35:07;10.13;;;8.48;;
23266;SDS011;11802;53.160;8.214;2023-07-09T03:37:33;11.60;;;8.48;;
23266;SDS011;11802;53.160;8.214;2023-07-09T03:39:59;10.73;;;8.23;;
23266;SDS011;11802;53.160;8.214;2023-07-09T03:42:25;10.73;;;8.48;;
23266;SDS011;11802;53.160;8.214;2023-07-09T03:44:50;13.43;;;8.50;;
23266;SDS011;11802;53.160;8.214;2023-07-09T03:47:16;11.30;;;8.77;;
23266;SDS011;11802;53.160;8.214;2023-07-09T03:49:43;11.98;;;8.48;;
23266;SDS011;11802;53.160;8.214;2023-07-09T03:52:08;13.77;;;8.98;;
23266;SDS011;11802;53.160;8.214;2023-07-09T03:54:34;10.88;;;8.18;;
23266;SDS011;11802;53.160;8.214;2023-07-09T03:56:59;9.80;;;8.38;;
23266;SDS011;11802;53.160;8.214;2023-07-09T03:59:25;11.52;;;8.68;;
23266;SDS011;11802;53.160;8.214;2023-07-09T04:01:50;10.85;;;8.63;;
23266;SDS011;11802;53.160;8.214;2023-07-09T04:04:16;9.80;;;7.72;;
23266;SDS011;11802;53.160;8.214;2023-07-09T04:06:45;10.85;;;8.13;;
23266;SDS011;11802;53.160;8.214;2023-07-09T04:09:11;10.77;;;7.90;;
23266;SDS011;11802;53.160;8.214;2023-07-09T04:11:36;9.10;;;7.85;;
23266;SDS011;11802;53.160;8.214;2023-07-09T04:14:02;11.38;;;8.05;;
23266;SDS011;11802;53.160;8.214;2023-07-09T04:16:28;9.07;;;7.97;;
23266;SDS011;11802;53.160;8.214;2023-07-09T04:18:53;11.32;;;8.38;;
23266;SDS011;11802;53.160;8.214;2023-07-09T04:21:19;10.20;;;7.13;;
23266;SDS011;11802;53.160;8.214;2023-07-09T04:23:44;9.80;;;7.70;;
23266;SDS011;11802;53.160;8.214;2023-07-09T04:26:13;8.82;;;7.35;;
23266;SDS011;11802;53.160;8.214;2023-07-09T04:28:39;9.57;;;7.82;;
23266;SDS011;11802;53.160;8.214;2023-07-09T04:31:04;11.50;;;7.60;;
23266;SDS011;11802;53.160;8.214;2023-07-09T04:33:30;10.10;;;8.05;;
23266;SDS011;11802;53.160;8.214;2023-07-09T04:35:55;10.20;;;8.23;;
23266;SDS011;11802;53.160;8.214;2023-07-09T04:38:22;10.77;;;8.13;;
23266;SDS011;11802;53.160;8.214;2023-07-09T04:40:47;10.13;;;7.55;;
23266;SDS011;11802;53.160;8.214;2023-07-09T04:43:13;10.27;;;7.68;;
23266;SDS011;11802;53.160;8.214;2023-07-09T04:45:39;13.75;;;8.23;;
23266;SDS011;11802;53.160;8.214;2023-07-09T04:48:04;11.52;;;7.90;;
23266;SDS011;11802;53.160;8.214;2023-07-09T04:50:31;13.32;;;8.00;;
23266;SDS011;11802;53.160;8.214;2023-07-09T04:52:56;9.90;;;7.53;;
23266;SDS011;11802;53.160;8.214;2023-07-09T04:55:24;14.32;;;8.15;;
23266;SDS011;11802;53.160;8.214;2023-07-09T04:57:51;10.05;;;7.63;;
23266;SDS011;11802;53.160;8.214;2023-07-09T05:00:17;10.18;;;7.45;;
23266;SDS011;11802;53.160;8.214;2023-07-09T05:02:43;11.38;;;7.50;;
23266;SDS011;11802;53.160;8.214;2023-07-09T05:05:09;10.98;;;7.82;;
23266;SDS011;11802;53.160;8.214;2023-07-09T05:07:36;10.57;;;7.13;;
23266;SDS011;11802;53.160;8.214;2023-07-09T05:10:01;10.23;;;7.95;;
23266;SDS011;11802;53.160;8.214;2023-07-09T05:12:27;8.85;;;7.25;;
23266;SDS011;11802;53.160;8.214;2023-07-09T05:14:54;9.63;;;7.40;;
23266;SDS011;11802;53.160;8.214;2023-07-09T05:17:21;10.00;;;7.00;;
23266;SDS011;11802;53.160;8.214;2023-07-09T05:19:47;9.13;;;7.20;;
23266;SDS011;11802;53.160;8.214;2023-07-09T05:22:12;12.52;;;7.60;;
23266;SDS011;11802;53.160;8.214;2023-07-09T05:24:38;8.73;;;6.85;;
23266;SDS011;11802;53.160;8.214;2023-07-09T05:27:03;8.25;;;6.85;;
23266;SDS011;11802;53.160;8.214;2023-07-09T05:29:29;9.43;;;7.07;;
23266;SDS011;11802;53.160;8.214;2023-07-09T05:31:54;10.40;;;7.03;;
23266;SDS011;11802;53.160;8.214;2023-07-09T05:34:20;9.38;;;7.05;;
23266;SDS011;11802;53.160;8.214;2023-07-09T05:36:46;10.65;;;7.50;;
23266;SDS011;11802;53.160;8.214;2023-07-09T05:39:12;8.80;;;6.50;;
23266;SDS011;11802;53.160;8.214;2023-07-09T05:41:37;10.00;;;7.82;;
23266;SDS011;11802;53.160;8.214;2023-07-09T05:44:03;8.13;;;7.10;;
23266;SDS011;11802;53.160;8.214;2023-07-09T05:46:33;9.88;;;7.05;;
23266;SDS011;11802;53.160;8.214;2023-07-09T05:49:01;9.35;;;7.18;;
23266;SDS011;11802;53.160;8.214;2023-07-09T05:51:27;8.30;;;7.10;;
23266;SDS011;11802;53.160;8.214;2023-07-09T05:53:53;8.65;;;7.20;;
23266;SDS011;11802;53.160;8.214;2023-07-09T05:56:18;8.77;;;7.10;;
23266;SDS011;11802;53.160;8.214;2023-07-09T05:58:44;8.30;;;6.53;;
23266;SDS011;11802;53.160;8.214;2023-07-09T06:01:09;9.90;;;7.45;;
23266;SDS011;11802;53.160;8.214;2023-07-09T06:03:35;8.75;;;7.28;;
23266;SDS011;11802;53.160;8.214;2023-07-09T06:06:01;7.82;;;6.90;;
23266;SDS011;11802;53.160;8.214;2023-07-09T06:08:26;10.43;;;6.97;;
23266;SDS011;11802;53.160;8.214;2023-07-09T06:10:57;9.15;;;7.40;;
23266;SDS011;11802;53.160;8.214;2023-07-09T06:13:24;11.35;;;7.80;;
23266;SDS011;11802;53.160;8.214;2023-07-09T06:15:51;10.00;;;7.07;;
23266;SDS011;11802;53.160;8.214;2023-07-09T06:18:18;10.32;;;7.57;;
23266;SDS011;11802;53.160;8.214;2023-07-09T06:20:51;10.40;;;7.50;;
23266;SDS011;11802;53.160;8.214;2023-07-09T06:23:19;8.55;;;7.15;;
23266;SDS011;11802;53.160;8.214;2023-07-09T06:25:45;8.70;;;6.78;;
23266;SDS011;11802;53.160;8.214;2023-07-09T06:28:16;8.70;;;6.97;;
23266;SDS011;11802;53.160;8.214;2023-07-09T06:30:44;9.70;;;7.57;;
23266;SDS011;11802;53.160;8.214;2023-07-09T06:33:10;9.60;;;6.85;;
23266;SDS011;11802;53.160;8.214;2023-07-09T06:35:37;10.10;;;7.53;;
23266;SDS011;11802;53.160;8.214;2023-07-09T06:38:04;10.38;;;7.10;;
23266;SDS011;11802;53.160;8.214;2023-07-09T06:40:30;8.98;;;6.82;;
23266;SDS011;11802;53.160;8.214;2023-07-09T06:42:56;9.77;;;6.55;;
23266;SDS011;11802;53.160;8.214;2023-07-09T06:45:22;7.32;;;6.38;;
23266;SDS011;11802;53.160;8.214;2023-07-09T06:47:48;7.32;;;6.10;;
23266;SDS011;11802;53.160;8.214;2023-07-09T06:50:14;8.15;;;6.45;;
23266;SDS011;11802;53.160;8.214;2023-07-09T06:52:40;7.72;;;6.00;;
23266;SDS011;11802;53.160;8.214;2023-07-09T06:55:06;6.75;;;5.70;;
23266;SDS011;11802;53.160;8.214;2023-07-09T06:57:32;7.15;;;6.20;;
23266;SDS011;11802;53.160;8.214;2023-07-09T06:59:58;8.65;;;6.10;;
23266;SDS011;11802;53.160;8.214;2023-07-09T07:02:23;8.85;;;5.80;;
23266;SDS011;11802;53.160;8.214;2023-07-09T07:04:49;8.02;;;6.07;;
23266;SDS011;11802;53.160;8.214;2023-07-09T07:07:15;10.43;;;6.57;;
23266;SDS011;11802;53.160;8.214;2023-07-09T07:09:40;8.10;;;5.93;;
23266;SDS011;11802;53.160;8.214;2023-07-09T07:12:06;8.15;;;5.47;;
23266;SDS011;11802;53.160;8.214;2023-07-09T07:14:32;8.77;;;6.22;;
23266;SDS011;11802;53.160;8.214;2023-07-09T07:16:57;7.63;;;5.95;;
23266;SDS011;11802;53.160;8.214;2023-07-09T07:19:23;7.15;;;5.90;;
23266;SDS011;11802;53.160;8.214;2023-07-09T07:21:48;8.73;;;5.75;;
23266;SDS011;11802;53.160;8.214;2023-07-09T07:24:14;9.10;;;6.10;;
23266;SDS011;11802;53.160;8.214;2023-07-09T07:26:39;9.85;;;5.47;;
23266;SDS011;11802;53.160;8.214;2023-07-09T07:29:05;9.85;;;6.03;;
23266;SDS011;11802;53.160;8.214;2023-07-09T07:31:30;9.68;;;5.78;;
23266;SDS011;11802;53.160;8.214;2023-07-09T07:33:56;9.63;;;6.05;;
23266;SDS011;11802;53.160;8.214;2023-07-09T07:36:21;8.82;;;5.18;;
23266;SDS011;11802;53.160;8.214;2023-07-09T07:38:47;7.35;;;5.50;;
23266;SDS011;11802;53.160;8.214;2023-07-09T07:41:13;8.15;;;5.93;;
23266;SDS011;11802;53.160;8.214;2023-07-09T07:43:38;7.10;;;5.72;;
23266;SDS011;11802;53.160;8.214;2023-07-09T07:46:05;7.85;;;5.60;;
23266;SDS011;11802;53.160;8.214;2023-07-09T07:48:32;8.32;;;5.95;;
23266;SDS011;11802;53.160;8.214;2023-07-09T07:50:58;6.75;;;5.60;;
23266;SDS011;11802;53.160;8.214;2023-07-09T07:53:26;7.47;;;5.40;;
23266;SDS011;11802;53.160;8.214;2023-07-09T07:55:54;8.50;;;5.60;;
23266;SDS011;11802;53.160;8.214;2023-07-09T07:58:21;10.57;;;5.55;;
23266;SDS011;11802;53.160;8.214;2023-07-09T08:00:46;8.75;;;5.40;;
23266;SDS011;11802;53.160;8.214;2023-07-09T08:03:12;6.40;;;5.13;;
23266;SDS011;11802;53.160;8.214;2023-07-09T08:05:38;8.38;;;5.43;;
23266;SDS011;11802;53.160;8.214;2023-07-09T08:08:03;7.10;;;5.50;;
23266;SDS011;11802;53.160;8.214;2023-07-09T08:10:29;12.63;;;5.97;;
23266;SDS011;11802;53.160;8.214;2023-07-09T08:12:55;6.63;;;5.72;;
23266;SDS011;11802;53.160;8.214;2023-07-09T08:15:22;6.65;;;5.13;;
23266;SDS011;11802;53.160;8.214;2023-07-09T08:17:49;9.43;;;5.70;;
23266;SDS011;11802;53.160;8.214;2023-07-09T08:20:14;7.55;;;5.78;;
23266;SDS011;11802;53.160;8.214;2023-07-09T08:22:40;9.75;;;5.85;;
23266;SDS011;11802;53.160;8.214;2023-07-09T08:25:06;7.72;;;5.80;;
23266;SDS011;11802;53.160;8.214;2023-07-09T08:27:32;9.88;;;7.60;;
23266;SDS011;11802;53.160;8.214;2023-07-09T08:29:57;7.28;;;6.32;;
23266;SDS011;11802;53.160;8.214;2023-07-09T08:32:23;7.70;;;6.03;;
23266;SDS011;11802;53.160;8.214;2023-07-09T08:34:48;8.82;;;6.57;;
23266;SDS011;11802;53.160;8.214;2023-07-09T08:37:14;9.43;;;6.13;;
23266;SDS011;11802;53.160;8.214;2023-07-09T08:39:39;7.97;;;5.82;;
23266;SDS011;11802;53.160;8.214;2023-07-09T08:42:07;7.75;;;6.43;;
23266;SDS011;11802;53.160;8.214;2023-07-09T08:47:45;10.25;;;5.88;;
23266;SDS011;11802;53.160;8.214;2023-07-09T08:50:17;8.38;;;6.32;;
23266;SDS011;11802;53.160;8.214;2023-07-09T08:52:47;9.45;;;6.70;;
23266;SDS011;11802;53.160;8.214;2023-07-09T08:55:16;7.72;;;6.22;;
23266;SDS011;11802;53.160;8.214;2023-07-09T08:57:50;7.72;;;6.03;;
23266;SDS011;11802;53.160;8.214;2023-07-09T09:00:28;9.07;;;6.15;;
23266;SDS011;11802;53.160;8.214;2023-07-09T09:02:57;7.72;;;6.05;;
23266;SDS011;11802;53.160;8.214;2023-07-09T09:05:30;8.95;;;6.53;;
23266;SDS011;11802;53.160;8.214;2023-07-09T09:08:01;10.13;;;6.78;;
23266;SDS011;11802;53.160;8.214;2023-07-09T09:10:33;7.78;;;5.50;;
23266;SDS011;11802;53.160;8.214;2023-07-09T09:13:10;9.40;;;6.05;;
23266;SDS011;11802;53.160;8.214;2023-07-09T09:15:39;8.23;;;5.97;;
23266;SDS011;11802;53.160;8.214;2023-07-09T09:18:26;7.97;;;5.68;;
23266;SDS011;11802;53.160;8.214;2023-07-09T09:21:21;8.25;;;6.00;;
23266;SDS011;11802;53.160;8.214;2023-07-09T09:23:51;7.63;;;5.85;;
23266;SDS011;11802;53.160;8.214;2023-07-09T09:28:55;10.98;;;6.22;;
23266;SDS011;11802;53.160;8.214;2023-07-09T09:31:21;8.43;;;5.85;;
23266;SDS011;11802;53.160;8.214;2023-07-09T09:33:49;10.88;;;6.88;;
23266;SDS011;11802;53.160;8.214;2023-07-09T09:36:19;10.15;;;6.07;;
23266;SDS011;11802;53.160;8.214;2023-07-09T09:38:50;8.70;;;6.13;;
23266;SDS011;11802;53.160;8.214;2023-07-09T09:41:17;7.93;;;5.80;;
23266;SDS011;11802;53.160;8.214;2023-07-09T09:43:45;7.35;;;6.30;;
23266;SDS011;11802;53.160;8.214;2023-07-09T09:48:47;10.88;;;6.93;;
23266;SDS011;11802;53.160;8.214;2023-07-09T09:51:18;7.25;;;6.07;;
23266;SDS011;11802;53.160;8.214;2023-07-09T09:53:45;8.90;;;6.80;;
23266;SDS011;11802;53.160;8.214;2023-07-09T09:56:23;7.13;;;6.00;;
23266;SDS011;11802;53.160;8.214;2023-07-09T09:58:53;9.50;;;6.13;;
23266;SDS011;11802;53.160;8.214;2023-07-09T10:01:21;9.32;;;6.35;;
23266;SDS011;11802;53.160;8.214;2023-07-09T10:03:59;7.57;;;6.15;;
23266;SDS011;11802;53.160;8.214;2023-07-09T10:06:49;7.30;;;6.00;;
23266;SDS011;11802;53.160;8.214;2023-07-09T10:15:11;8.05;;;6.18;;
23266;SDS011;11802;53.160;8.214;2023-07-09T10:18:02;9.38;;;6.10;;
23266;SDS011;11802;53.160;8.214;2023-07-09T10:21:23;6.55;;;5.28;;
23266;SDS011;11802;53.160;8.214;2023-07-09T10:26:05;7.00;;;5.45;;
23266;SDS011;11802;53.160;8.214;2023-07-09T10:28:59;8.20;;;6.03;;
23266;SDS011;11802;53.160;8.214;2023-07-09T10:31:50;9.50;;;6.25;;
23266;SDS011;11802;53.160;8.214;2023-07-09T10:34:28;7.97;;;5.93;;
23266;SDS011;11802;53.160;8.214;2023-07-09T10:37:14;9.35;;;6.38;;
23266;SDS011;11802;53.160;8.214;2023-07-09T10:40:04;9.93;;;5.97;;
23266;SDS011;11802;53.160;8.214;2023-07-09T10:42:35;7.10;;;5.70;;
23266;SDS011;11802;53.160;8.214;2023-07-09T10:45:16;10.30;;;6.05;;
23266;SDS011;11802;53.160;8.214;2023-07-09T10:47:53;10.25;;;6.28;;
23266;SDS011;11802;53.160;8.214;2023-07-09T10:53:00;7.10;;;5.70;;
23266;SDS011;11802;53.160;8.214;2023-07-09T10:55:40;8.60;;;6.13;;
23266;SDS011;11802;53.160;8.214;2023-07-09T10:58:21;10.98;;;6.07;;
23266;SDS011;11802;53.160;8.214;2023-07-09T11:01:02;8.20;;;6.13;;
23266;SDS011;11802;53.160;8.214;2023-07-09T11:06:19;8.77;;;5.88;;
23266;SDS011;11802;53.160;8.214;2023-07-09T11:08:51;9.18;;;5.55;;
23266;SDS011;11802;53.160;8.214;2023-07-09T11:11:24;7.10;;;5.75;;
23266;SDS011;11802;53.160;8.214;2023-07-09T11:13:56;9.25;;;6.05;;
23266;SDS011;11802;53.160;8.214;2023-07-09T11:16:30;10.55;;;6.25;;
23266;SDS011;11802;53.160;8.214;2023-07-09T11:19:00;7.93;;;5.85;;
23266;SDS011;11802;53.160;8.214;2023-07-09T11:21:28;7.40;;;5.95;;
23266;SDS011;11802;53.160;8.214;2023-07-09T11:23:57;9.77;;;6.15;;
23266;SDS011;11802;53.160;8.214;2023-07-09T11:29:16;7.22;;;5.82;;
23266;SDS011;11802;53.160;8.214;2023-07-09T11:31:43;10.57;;;5.82;;
23266;SDS011;11802;53.160;8.214;2023-07-09T11:36:50;8.57;;;5.88;;
23266;SDS011;11802;53.160;8.214;2023-07-09T11:39:26;8.80;;;6.28;;
23266;SDS011;11802;53.160;8.214;2023-07-09T11:42:23;8.82;;;6.03;;
23266;SDS011;11802;53.160;8.214;2023-07-09T11:44:50;6.95;;;5.72;;
23266;SDS011;11802;53.160;8.214;2023-07-09T11:47:24;8.68;;;6.13;;
23266;SDS011;11802;53.160;8.214;2023-07-09T11:49:57;7.20;;;6.07;;
23266;SDS011;11802;53.160;8.214;2023-07-09T11:52:30;8.13;;;6.28;;
23266;SDS011;11802;53.160;8.214;2023-07-09T11:57:54;7.45;;;6.18;;
23266;SDS011;11802;53.160;8.214;2023-07-09T12:00:22;8.43;;;6.28;;
23266;SDS011;11802;53.160;8.214;2023-07-09T12:02:48;10.60;;;6.15;;
23266;SDS011;11802;53.160;8.214;2023-07-09T12:05:18;8.48;;;5.72;;
23266;SDS011;11802;53.160;8.214;2023-07-09T12:07:45;10.65;;;6.05;;
23266;SDS011;11802;53.160;8.214;2023-07-09T12:10:18;6.88;;;5.68;;
23266;SDS011;11802;53.160;8.214;2023-07-09T12:12:46;9.52;;;5.78;;
23266;SDS011;11802;53.160;8.214;2023-07-09T12:15:19;7.22;;;6.03;;
23266;SDS011;11802;53.160;8.214;2023-07-09T12:17:57;7.63;;;5.82;;
23266;SDS011;11802;53.160;8.214;2023-07-09T12:20:25;9.23;;;5.60;;
23266;SDS011;11802;53.160;8.214;2023-07-09T12:22:54;9.32;;;6.25;;
23266;SDS011;11802;53.160;8.214;2023-07-09T12:25:21;7.72;;;5.90;;
23266;SDS011;11802;53.160;8.214;2023-07-09T12:27:50;7.25;;;5.68;;
23266;SDS011;11802;53.160;8.214;2023-07-09T12:30:15;9.98;;;5.93;;
23266;SDS011;11802;53.160;8.214;2023-07-09T12:32:45;6.95;;;5.82;;
23266;SDS011;11802;53.160;8.214;2023-07-09T12:35:13;6.90;;;5.90;;
23266;SDS011;11802;53.160;8.214;2023-07-09T12:37:40;9.90;;;5.68;;
23266;SDS011;11802;53.160;8.214;2023-07-09T12:40:11;7.45;;;5.68;;
23266;SDS011;11802;53.160;8.214;2023-07-09T12:42:44;9.13;;;5.60;;
23266;SDS011;11802;53.160;8.214;2023-07-09T12:45:19;8.40;;;6.07;;
23266;SDS011;11802;53.160;8.214;2023-07-09T12:47:46;8.48;;;5.50;;
23266;SDS011;11802;53.160;8.214;2023-07-09T12:50:22;7.68;;;6.32;;
23266;SDS011;11802;53.160;8.214;2023-07-09T12:53:14;9.25;;;6.43;;
23266;SDS011;11802;53.160;8.214;2023-07-09T12:55:42;8.52;;;6.25;;
23266;SDS011;11802;53.160;8.214;2023-07-09T12:58:31;8.45;;;5.95;;
23266;SDS011;11802;53.160;8.214;2023-07-09T13:01:04;9.85;;;6.93;;
23266;SDS011;11802;53.160;8.214;2023-07-09T13:03:32;6.95;;;5.80;;
23266;SDS011;11802;53.160;8.214;2023-07-09T13:06:03;9.30;;;6.18;;
23266;SDS011;11802;53.160;8.214;2023-07-09T13:08:30;9.77;;;6.10;;
23266;SDS011;11802;53.160;8.214;2023-07-09T13:11:14;10.18;;;6.40;;
23266;SDS011;11802;53.160;8.214;2023-07-09T13:13:40;8.70;;;6.50;;
23266;SDS011;11802;53.160;8.214;2023-07-09T13:16:06;8.80;;;6.03;;
23266;SDS011;11802;53.160;8.214;2023-07-09T13:18:31;8.35;;;5.90;;
23266;SDS011;11802;53.160;8.214;2023-07-09T13:20:57;7.78;;;6.03;;
23266;SDS011;11802;53.160;8.214;2023-07-09T13:23:25;8.77;;;6.53;;
23266;SDS011;11802;53.160;8.214;2023-07-09T13:25:53;11.25;;;6.30;;
23266;SDS011;11802;53.160;8.214;2023-07-09T13:30:51;12.32;;;6.70;;
23266;SDS011;11802;53.160;8.214;2023-07-09T13:33:18;10.45;;;6.72;;
23266;SDS011;11802;53.160;8.214;2023-07-09T13:35:44;8.30;;;5.88;;
23266;SDS011;11802;53.160;8.214;2023-07-09T13:38:15;8.95;;;6.13;;
23266;SDS011;11802;53.160;8.214;2023-07-09T13:40:42;9.07;;;6.40;;
23266;SDS011;11802;53.160;8.214;2023-07-09T13:43:13;8.43;;;6.50;;
23266;SDS011;11802;53.160;8.214;2023-07-09T13:45:39;7.82;;;6.05;;
23266;SDS011;11802;53.160;8.214;2023-07-09T13:48:09;10.02;;;6.10;;
23266;SDS011;11802;53.160;8.214;2023-07-09T13:50:42;8.73;;;6.53;;
23266;SDS011;11802;53.160;8.214;2023-07-09T13:53:11;12.68;;;6.40;;
23266;SDS011;11802;53.160;8.214;2023-07-09T13:55:40;9.02;;;6.50;;
23266;SDS011;11802;53.160;8.214;2023-07-09T13:58:08;10.07;;;6.30;;
23266;SDS011;11802;53.160;8.214;2023-07-09T14:00:37;11.07;;;6.63;;
23266;SDS011;11802;53.160;8.214;2023-07-09T14:03:09;7.70;;;5.90;;
23266;SDS011;11802;53.160;8.214;2023-07-09T14:05:43;9.35;;;6.18;;
23266;SDS011;11802;53.160;8.214;2023-07-09T14:08:10;10.57;;;5.97;;
23266;SDS011;11802;53.160;8.214;2023-07-09T14:10:36;7.90;;;5.80;;
23266;SDS011;11802;53.160;8.214;2023-07-09T14:13:02;7.80;;;6.15;;
23266;SDS011;11802;53.160;8.214;2023-07-09T14:15:28;7.75;;;6.05;;
23266;SDS011;11802;53.160;8.214;2023-07-09T14:17:54;8.55;;;6.07;;
23266;SDS011;11802;53.160;8.214;2023-07-09T14:20:23;10.18;;;6.32;;
23266;SDS011;11802;53.160;8.214;2023-07-09T14:22:49;10.45;;;6.38;;
23266;SDS011;11802;53.160;8.214;2023-07-09T14:25:21;6.82;;;5.70;;
23266;SDS011;11802;53.160;8.214;2023-07-09T14:27:52;9.43;;;5.90;;
23266;SDS011;11802;53.160;8.214;2023-07-09T14:30:23;10.85;;;5.47;;
23266;SDS011;11802;53.160;8.214;2023-07-09T14:32:50;7.63;;;5.45;;
23266;SDS011;11802;53.160;8.214;2023-07-09T14:35:21;9.73;;;6.18;;
23266;SDS011;11802;53.160;8.214;2023-07-09T14:37:48;7.85;;;5.22;;
23266;SDS011;11802;53.160;8.214;2023-07-09T14:40:18;10.73;;;5.85;;
23266;SDS011;11802;53.160;8.214;2023-07-09T14:42:46;8.30;;;6.28;;
23266;SDS011;11802;53.160;8.214;2023-07-09T14:45:16;8.50;;;5.32;;
23266;SDS011;11802;53.160;8.214;2023-07-09T14:47:48;7.07;;;5.40;;
23266;SDS011;11802;53.160;8.214;2023-07-09T14:50:15;9.60;;;5.80;;
23266;SDS011;11802;53.160;8.214;2023-07-09T14:52:41;8.23;;;5.53;;
23266;SDS011;11802;53.160;8.214;2023-07-09T14:55:19;8.70;;;5.45;;
23266;SDS011;11802;53.160;8.214;2023-07-09T14:57:46;8.18;;;5.75;;
23266;SDS011;11802;53.160;8.214;2023-07-09T15:00:16;11.50;;;5.82;;
23266;SDS011;11802;53.160;8.214;2023-07-09T15:02:46;7.85;;;5.60;;
23266;SDS011;11802;53.160;8.214;2023-07-09T15:05:18;10.70;;;5.50;;
23266;SDS011;11802;53.160;8.214;2023-07-09T15:07:46;11.43;;;6.05;;
23266;SDS011;11802;53.160;8.214;2023-07-09T15:10:12;8.95;;;5.30;;
23266;SDS011;11802;53.160;8.214;2023-07-09T15:12:43;9.55;;;5.80;;
23266;SDS011;11802;53.160;8.214;2023-07-09T15:17:52;7.90;;;5.38;;
23266;SDS011;11802;53.160;8.214;2023-07-09T15:20:20;9.90;;;5.68;;
23266;SDS011;11802;53.160;8.214;2023-07-09T15:22:49;7.65;;;5.47;;
23266;SDS011;11802;53.160;8.214;2023-07-09T15:25:17;9.02;;;5.70;;
23266;SDS011;11802;53.160;8.214;2023-07-09T15:27:45;7.50;;;5.57;;
23266;SDS011;11802;53.160;8.214;2023-07-09T15:30:30;10.35;;;5.40;;
23266;SDS011;11802;53.160;8.214;2023-07-09T15:32:57;10.90;;;5.72;;
23266;SDS011;11802;53.160;8.214;2023-07-09T15:35:25;11.05;;;6.30;;